North Middletown, New Jersey
Current Conditions -  °F | °C
As of 7:55 PM on Sunday 28 Dec 2014 (Local Time) from KBLM Reporting Station
Overcast Overcast  
Wind Chill: 50°   Ceiling: 9000
Heat Index: 50°   Visibility: 10mi
Dew Point: 39°   Wind: 3mph
Humidity: 66%   Direction: 280°W
Pressure: 29.98"   Gusts: NA
Location:  40.3908°N, 74.1116°W
Report Text: KBLM 290055Z AUTO 28003KT 10SM FEW080 OVC090 10/04 A2998 RMK AO1
Loading
Personal Weather Stations






























Interactive Weather Map New forecast layout! Learn more

10-Day Weather Forecast

Advertisements
Track Severe Weather on mobile